createdAt,value
2019-06-07T05:06:25.323Z,3.00
2019-06-07T05:11:26.225Z,3.50
2019-06-07T05:16:35.200Z,2.77
2019-06-07T05:21:54.264Z,3.47
2019-06-07T05:26:39.154Z,2.90
2019-06-07T05:31:45.270Z,3.47
2019-06-07T05:36:45.245Z,3.07
2019-06-07T05:41:46.377Z,3.00
2019-06-07T05:46:47.680Z,3.20
2019-06-07T05:51:48.668Z,3.70
2019-06-07T05:56:49.568Z,3.53
2019-06-07T06:02:02.080Z,3.57
2019-06-07T06:06:53.221Z,4.00
2019-06-07T06:12:01.539Z,6.10
2019-06-07T06:16:56.872Z,4.83
2019-06-07T06:21:57.771Z,5.47
2019-06-07T06:27:40.664Z,5.03
2019-06-07T06:37:13.601Z,4.33
2019-06-07T06:42:14.488Z,4.77
2019-06-07T06:47:15.375Z,4.77
2019-06-07T06:52:16.270Z,4.13
2019-06-07T06:57:20.086Z,4.60
2019-06-07T07:02:19.924Z,4.73
2019-06-07T07:07:22.291Z,4.50
2019-06-07T07:12:23.166Z,5.30
2019-06-07T07:17:47.154Z,4.87
2019-06-07T07:22:26.820Z,4.40
2019-06-07T07:27:27.703Z,4.30
2019-06-07T07:32:28.586Z,4.93
2019-06-07T07:37:29.620Z,4.40
2019-06-07T07:42:30.543Z,4.33
2019-06-07T07:47:31.449Z,5.13
2019-06-07T07:52:32.296Z,4.53
2019-06-07T07:57:33.177Z,4.30
2019-06-07T08:02:34.760Z,3.73
2019-06-07T08:07:35.641Z,3.77
2019-06-07T08:12:55.759Z,4.63
2019-06-07T08:17:39.297Z,4.17
2019-06-07T08:22:40.261Z,4.07
2019-06-07T08:27:41.141Z,3.23
2019-06-07T08:32:42.046Z,3.73
2019-06-07T08:38:15.062Z,3.67
2019-06-07T08:43:02.806Z,3.73
2019-06-07T08:47:56.531Z,3.40
2019-06-07T08:52:54.727Z,3.60
2019-06-07T08:58:01.544Z,3.53
2019-06-07T09:02:58.929Z,2.90
2019-06-07T09:08:23.847Z,2.43
2019-06-07T09:13:10.099Z,3.13
2019-06-07T09:23:16.817Z,3.00
2019-06-07T09:28:19.156Z,2.80
2019-06-07T09:33:14.643Z,3.10
2019-06-07T09:38:25.015Z,2.80
2019-06-07T09:43:59.867Z,2.53
2019-06-07T09:49:08.964Z,2.57
2019-06-07T09:53:24.893Z,2.73
2019-06-07T10:03:28.553Z,2.57
2019-06-07T10:13:32.234Z,2.33
2019-06-07T10:18:33.114Z,3.00
2019-06-07T10:23:34.772Z,2.10
2019-06-07T10:28:35.648Z,2.10
2019-06-07T10:33:36.539Z,1.80
2019-06-07T10:38:37.407Z,2.00
2019-06-07T10:43:38.286Z,2.57
2019-06-07T10:48:39.257Z,2.40
2019-06-07T10:53:40.135Z,2.03
2019-06-07T10:58:41.326Z,2.40
2019-06-07T11:03:42.305Z,1.93
2019-06-07T11:08:43.300Z,2.30
2019-06-07T11:13:44.177Z,2.10
2019-06-07T11:18:45.154Z,2.10
2019-06-07T11:23:46.149Z,2.33
2019-06-07T11:28:47.031Z,2.10
2019-06-07T11:33:47.924Z,2.10
2019-06-07T11:38:48.899Z,2.17
2019-06-07T11:43:49.787Z,2.00
2019-06-07T11:48:50.646Z,2.50
2019-06-07T11:53:51.522Z,2.47
2019-06-07T11:58:52.445Z,2.47
2019-06-07T12:03:53.473Z,2.93
2019-06-07T12:08:54.478Z,2.40
2019-06-07T12:13:55.593Z,2.10
2019-06-07T12:18:56.574Z,2.13
2019-06-07T12:23:57.473Z,2.57
2019-06-07T12:28:58.325Z,2.20
2019-06-07T12:33:59.214Z,2.30
2019-06-07T12:39:00.112Z,2.40
2019-06-07T12:44:01.957Z,2.33
2019-06-07T12:49:03.611Z,2.50
2019-06-07T12:54:04.924Z,2.30
2019-06-07T12:59:05.798Z,2.40
2019-06-07T13:04:14.318Z,2.13
2019-06-07T13:09:21.863Z,2.27
2019-06-07T13:14:24.040Z,2.73
2019-06-07T13:19:25.122Z,2.20
2019-06-07T13:24:25.999Z,2.50
2019-06-07T13:29:29.577Z,2.27
2019-06-07T13:34:29.712Z,2.70
2019-06-07T13:39:30.579Z,2.70
2019-06-07T13:44:31.572Z,3.03
2019-06-07T13:49:32.449Z,2.63
2019-06-07T13:54:33.339Z,3.17
2019-06-07T13:59:34.210Z,3.10
2019-06-07T14:04:35.077Z,3.17
2019-06-07T14:09:35.954Z,3.07
2019-06-07T14:14:36.825Z,3.07
2019-06-07T14:19:37.704Z,3.30
2019-06-07T14:24:38.567Z,2.97
2019-06-07T14:29:39.551Z,3.00
2019-06-07T14:34:40.551Z,3.10
2019-06-07T14:39:41.739Z,2.97
2019-06-07T14:44:42.606Z,2.80
2019-06-07T14:49:43.581Z,3.10
2019-06-07T14:54:44.571Z,2.90
2019-06-07T14:59:45.444Z,2.50
2019-06-07T15:04:46.744Z,2.80
2019-06-07T15:09:47.598Z,2.83
2019-06-07T15:14:48.472Z,2.70
2019-06-07T15:19:49.365Z,3.00
2019-06-07T15:24:50.240Z,2.97
2019-06-07T15:29:51.119Z,2.90
2019-06-07T15:34:52.004Z,2.77
2019-06-07T15:39:52.877Z,2.90
2019-06-07T15:44:55.917Z,3.10
2019-06-07T15:49:56.526Z,2.80
2019-06-07T15:54:57.399Z,2.67
2019-06-07T15:59:58.276Z,3.07
2019-06-07T16:04:59.257Z,3.17
2019-06-07T16:10:00.127Z,3.03
2019-06-07T16:15:01.000Z,3.23
2019-06-07T16:20:06.386Z,3.20
2019-06-07T16:25:07.361Z,2.90
2019-06-07T16:30:09.836Z,3.90
2019-06-07T16:35:11.524Z,3.30
2019-06-07T16:40:14.031Z,3.47
2019-06-07T16:45:15.128Z,3.50
2019-06-07T16:50:16.386Z,3.80
2019-06-07T16:55:17.359Z,3.60
2019-06-07T17:00:19.751Z,3.47
2019-06-07T17:05:21.214Z,3.73
2019-06-07T17:10:22.215Z,4.33
2019-06-07T17:15:23.372Z,4.13
2019-06-07T17:20:24.454Z,4.50
2019-06-07T17:25:25.354Z,4.47
2019-06-07T17:30:26.300Z,4.90
2019-06-07T17:35:27.191Z,5.00
2019-06-07T17:40:28.069Z,5.17
2019-06-07T17:45:28.940Z,5.10
2019-06-07T17:50:29.918Z,5.10
2019-06-07T17:55:30.796Z,5.23
2019-06-07T18:00:51.300Z,4.67
2019-06-07T18:05:53.543Z,4.63
2019-06-07T18:10:54.537Z,4.90
2019-06-07T18:15:59.375Z,5.00
2019-06-07T18:20:58.203Z,4.90
2019-06-07T18:25:59.078Z,4.77
2019-06-07T18:30:59.965Z,5.23
2019-06-07T18:36:01.576Z,5.43
2019-06-07T18:41:02.447Z,5.20
2019-06-07T18:46:03.430Z,4.93
2019-06-07T18:51:04.421Z,5.00
2019-06-07T18:56:05.370Z,5.63
2019-06-07T19:01:06.310Z,5.50
2019-06-07T19:06:07.225Z,5.50
2019-06-07T19:11:08.166Z,5.23
2019-06-07T19:16:09.053Z,5.27
2019-06-07T19:21:10.037Z,5.43
2019-06-07T19:26:10.927Z,5.20
2019-06-07T19:31:11.807Z,5.20
2019-06-07T19:36:12.740Z,5.17
2019-06-07T19:41:19.642Z,5.50
2019-06-07T19:46:16.368Z,5.27
2019-06-07T19:51:20.198Z,5.30
2019-06-07T19:56:20.028Z,5.43
2019-06-07T20:01:21.109Z,5.27
2019-06-07T20:06:21.990Z,5.80
2019-06-07T20:11:22.916Z,5.77
2019-06-07T20:16:23.747Z,5.37
2019-06-07T20:21:24.620Z,5.70
2019-06-07T20:26:25.504Z,5.30
2019-06-07T20:31:26.387Z,5.93
2019-06-07T20:36:27.275Z,5.60
2019-06-07T20:41:28.172Z,5.23
2019-06-07T20:46:29.035Z,5.83
2019-06-07T20:51:29.908Z,5.60
2019-06-07T20:56:30.786Z,5.80
2019-06-07T21:01:31.692Z,5.90
2019-06-07T21:06:32.551Z,6.77
2019-06-07T21:11:33.432Z,5.80
2019-06-07T21:16:34.415Z,6.27
2019-06-07T21:21:35.399Z,6.00
2019-06-07T21:26:36.270Z,5.67
2019-06-07T21:31:37.156Z,6.40
2019-06-07T21:36:38.059Z,5.40
2019-06-07T21:41:38.931Z,6.23
2019-06-07T21:46:39.804Z,5.90
2019-06-07T21:51:40.698Z,5.30
2019-06-07T21:56:41.570Z,5.33
2019-06-07T22:01:42.830Z,6.50
2019-06-07T22:06:43.702Z,5.73
2019-06-07T22:11:44.595Z,6.07
2019-06-07T22:16:45.586Z,5.93
2019-06-07T22:21:59.236Z,5.63
2019-06-07T22:26:49.344Z,5.17
2019-06-07T22:31:50.221Z,5.37
2019-06-07T22:36:51.120Z,5.50
2019-06-07T22:41:52.004Z,5.27
2019-06-07T22:46:53.005Z,5.90
2019-06-07T22:52:07.981Z,5.90
2019-06-07T22:56:58.581Z,6.57
2019-06-07T23:01:59.547Z,6.00
2019-06-07T23:07:00.416Z,5.83
2019-06-07T23:12:01.298Z,6.40
2019-06-07T23:17:02.401Z,6.00
2019-06-07T23:22:03.377Z,6.67
2019-06-07T23:27:04.256Z,6.00
2019-06-07T23:32:05.138Z,5.53
2019-06-07T23:37:06.037Z,5.70
2019-06-07T23:42:06.919Z,5.70
2019-06-07T23:47:11.083Z,6.03
2019-06-07T23:52:11.661Z,6.47
2019-06-07T23:57:13.987Z,6.40
